sail-world.com
 
 
News Home Cruising Photo Gallery Video Gallery
Sail-World.com : Brisbane to Keppel Tropical Yacht Race - Clean and quiet start
Brisbane to Keppel Tropical Yacht Race - Clean and quiet start

'Dunan Hine's Alive from Tas - Brisbane to Keppel Tropical Yacht Race 2014'    Andrew Gough    Click Here to view large photo

The gentlemanly midday start of the eighth annual Brisbane to Keppel Tropical Yacht Race on Moreton Bay for the record-equalling fleet of 35 yachts from Tasmania to Townsville was clean and quiet.

This afternoon off Caloundra on the Sunshine Coast Bob Oatley’s race record-holder Wild Oats XI comfortably leads the pack. The 100-footer, with one of Australia’s best-known sailors Iain Murray at the helm, is lapping up the building afternoon sea breeze and making good time, averaging 15 knots of boat speed. There’s plenty of clear air when you are the largest in the fleet but not much in the way of company, other than the sea birds.

Mainsails at the start - Brisbane to Keppel Tropical Yacht Race 2014 -  Andrew Gough   Click Here to view large photo

Peter Harburg’s Juan K 70 Black Jack, sailing for the event host club Royal Queensland Yacht Squadron, Yachting Australia President Matt Allen’s Carkeek 60 Ichi Ban, Duncan Hine’s RP66 Alive and Wild Oats XI all opted for the pin end of the start line in the gentle five knots of north east breeze.

Black Jack helmed by Mark Bradford tacked right first while Wild Oats XI and Alive hung in and found good pressure close under Green Island. It was high and hot to the left and low and slow to the right where Black Jack wallowed for a bit. Alive put the boot in early and at 4pm on day one is leading the IRC Overall division. Now Hobart based, Alive is the former Black Jack and a fancied handicap chance.

The crew on the second Tasmanian boat in the fleet, Michael Pritchard’s Beneteau First 45 Audere have the choice of Rogan Josh, good ‘ole spag bowl or Thai Green chicken curry for dinner, the two latter dishes cooked in Hobart by the owner’s wife Bianca and one of the crew, Daniella Polita, and hand-delivered to Brisbane in a Coles cooler bag by Daniella.

Audere Tas boat - Brisbane to Keppel Tropical Yacht Race 2014 -  Andrew Gough   Click Here to view large photo

Audere is a long way from home. Their journey began with the delivery across Bass Strait then the Sydney Gold Coast yacht race that wrapped up earlier this week, now their first Brisbane to Keppel and then onto Audi Hamilton Island Race Week starting August 16, 2014.

Back in the pack yachts are spread out all over Moreton Bay on a cool and sparkling winter’s afternoon, essentially in size order. A whale on the course early on meant crews had to keep a wary eye out and with the mammal’s migration north still going on crews will need to be vigilant throughout the 348 nautical mile coastal passage.

The fleet can expect 15 knot nor’westers tomorrow until the early hours of Saturday morning when a southerly change is set to change up the tempo with 20 plus knots of wind forecast to hit the racetrack.

Club Marine’s acting Queensland state manager Corey Yeung speaks proudly of their association with this annual feeder race. 'Club Marine is extremely proud to support the eighth annual Club Marine Brisbane to Keppel Tropical Yacht Race. As a long time sponsor, it’s especially pleasing to see that interest in the race continues to grow, with this year’s event attracting such a large fleet.

'Congratulations to the Royal Queensland Yacht Squadron for putting together such a great event.'

Iain Murray at the helm of WOXI - Brisbane to Keppel Tropical Yacht Race 2014 -  Andrew Gough   Click Here to view large photo


IRC overall

Position Name Rating Start Time Last update DTF (NM) Distance Sailed (NM) VMG* (Knots) Estimated finish time (EST) Estimated finish time (EST corrected)
1 WILD OATS XI 1.9730 31 Jul 12:00:00 31 Jul 19:30:00 262.9 90.8 9.9 01 Aug 22:04:08 03 Aug 07:13:05
2 LOCAL HERO 1.0480 31 Jul 12:00:00 31 Jul 19:30:00 301.5 47.9 5.1 03 Aug 06:45:41 03 Aug 09:57:58
3 GEORGIA EXPRESS 1.0790 31 Jul 12:00:00 31 Jul 19:30:00 297.8 48.8 5.1 03 Aug 06:08:47 03 Aug 11:22:19
4 ALIVE 1.5780 31 Jul 12:00:00 31 Jul 19:30:00 276.3 73.9 7.3 02 Aug 09:32:52 03 Aug 11:52:28
5 KERUMBA 1.2600 31 Jul 12:00:00 31 Jul 19:30:00 289.9 60.3 5.8 02 Aug 21:30:46 03 Aug 12:27:58
6 MAYFAIR 1.0820 31 Jul 12:00:00 31 Jul 19:30:00 296.8 51.0 5.0 03 Aug 07:02:33 03 Aug 12:32:24
7 BLACK JACK 1.7030 31 Jul 12:00:00 31 Jul 19:30:00 272.0 82.3 7.7 02 Aug 06:36:19 03 Aug 12:33:24
8 ICHI BAN 1.5020 31 Jul 12:00:00 31 Jul 19:30:00 280.1 70.0 6.8 02 Aug 12:51:39 03 Aug 13:23:21
9 CARBON CREDITS 1.1180 31 Jul 12:00:00 31 Jul 19:30:00 294.7 53.2 5.0 03 Aug 06:29:20 03 Aug 14:20:05
10 AUDERE 1.1040 31 Jul 12:00:00 31 Jul 19:30:00 294.6 53.6 4.9 03 Aug 07:31:35 03 Aug 14:32:57
11 PATRIOT 1.1110 31 Jul 12:00:00 31 Jul 19:30:00 294.4 53.2 4.9 03 Aug 07:07:02 03 Aug 14:34:03
12 OCEAN AFFINITY 1.2470 31 Jul 12:00:00 31 Jul 19:30:00 290.8 58.5 5.5 03 Aug 00:43:48 03 Aug 15:43:49
13 RAGTIME 1.0950 31 Jul 12:00:00 31 Jul 19:30:00 296.4 51.6 4.7 03 Aug 10:24:47 03 Aug 17:06:08
14 HASTA LA VISTA 1.1010 31 Jul 12:00:00 31 Jul 19:30:00 296.2 51.7 4.7 03 Aug 10:20:48 03 Aug 17:27:07
15 LEE-WAY 1.0160 31 Jul 12:00:00 31 Jul 19:30:00 303.5 46.8 4.4 03 Aug 16:41:55 03 Aug 17:55:33
16 BOBBYS GIRL 1.1660 31 Jul 12:00:00 31 Jul 19:30:00 295.0 53.5 4.9 03 Aug 07:09:53 03 Aug 18:18:51
17 PATRICE 1.2820 31 Jul 12:00:00 31 Jul 19:30:00 288.7 60.3 5.4 03 Aug 01:10:49 03 Aug 18:26:00
18 AFTER MIDNIGHT 1.1450 31 Jul 12:00:00 31 Jul 19:30:00 295.1 53.3 4.8 03 Aug 08:54:59 03 Aug 18:54:33
19 SWISH 1.2410 31 Jul 12:00:00 31 Jul 19:30:00 290.6 58.8 5.1 03 Aug 03:58:15 03 Aug 19:23:17
20 BROADSWORD 1.1000 31 Jul 12:00:00 31 Jul 19:30:00 297.8 50.7 4.6 03 Aug 12:15:30 03 Aug 19:29:03
21 DEKADENCE 1.1830 31 Jul 12:00:00 31 Jul 19:30:00 293.6 55.0 4.9 03 Aug 07:34:52 03 Aug 19:56:54
22 CELESTIAL 1.2670 31 Jul 12:00:00 31 Jul 19:30:00 289.4 59.9 5.2 03 Aug 03:20:48 03 Aug 20:15:37
23 FRANTIC 1.1430 31 Jul 12:00:00 31 Jul 19:30:00 299.5 49.4 4.6 03 Aug 12:02:15 03 Aug 22:20:19
24 FRANTIC 1.3460 31 Jul 12:00:00 31 Jul 19:30:00 288.9 60.2 5.3 03 Aug 01:45:14 03 Aug 23:07:15
25 ITALIAN JOB 1.0720 31 Jul 12:00:00 31 Jul 19:30:00 298.6 48.1 4.2 03 Aug 18:11:07 03 Aug 23:48:53


ORCi overall

Position Name Rating Start Time Last update DTF (NM) Distance Sailed (NM) VMG* (Knots) Estimated finish time (EST) Estimated finish time (EST corrected)
1 BLACK JACK 1.5129 31 Jul 12:00:00 31 Jul 19:30:00 272.0 82.3 7.7 02 Aug 06:36:19 03 Aug 04:27:27
2 LOCAL HERO 1.0176 31 Jul 12:00:00 31 Jul 19:30:00 301.5 47.9 5.1 03 Aug 06:45:41 03 Aug 07:56:11
3 ALIVE 1.5061 31 Jul 12:00:00 31 Jul 19:30:00 276.3 73.9 7.3 02 Aug 09:32:52 03 Aug 08:35:59
4 AUDERE 1.0690 31 Jul 12:00:00 31 Jul 19:30:00 294.6 53.6 4.9 03 Aug 07:31:35 03 Aug 12:11:09
5 CARBON CREDITS 1.0896 31 Jul 12:00:00 31 Jul 19:30:00 294.7 53.2 5.0 03 Aug 06:29:20 03 Aug 12:26:47
6 PATRIOT 1.0799 31 Jul 12:00:00 31 Jul 19:30:00 294.4 53.2 4.9 03 Aug 07:07:02 03 Aug 12:28:48
7 DRAKE'S PRAYER 1.0269 31 Jul 12:00:00 31 Jul 19:30:00 299.3 49.2 4.7 03 Aug 11:15:26 03 Aug 13:10:26
8 OCEAN AFFINITY 1.2413 31 Jul 12:00:00 31 Jul 19:30:00 290.8 58.5 5.5 03 Aug 00:43:48 03 Aug 15:23:02
9 HASTA LA VISTA 1.0736 31 Jul 12:00:00 31 Jul 19:30:00 296.2 51.7 4.7 03 Aug 10:20:48 03 Aug 15:31:28
10 RAGTIME 1.0818 31 Jul 12:00:00 31 Jul 19:30:00 296.4 51.6 4.7 03 Aug 10:24:47 03 Aug 16:10:22
11 AIRSTREAM 1.0214 31 Jul 12:00:00 31 Jul 19:30:00 301.9 46.7 4.5 03 Aug 14:56:36 03 Aug 16:32:50
12 SOUTHERN CROSS YACHT 1.0759 31 Jul 12:00:00 31 Jul 19:30:00 296.7 51.3 4.7 03 Aug 11:13:09 03 Aug 16:37:29
13 FRANTIC 1.0752 31 Jul 12:00:00 31 Jul 19:30:00 299.5 49.4 4.6 03 Aug 12:02:15 03 Aug 17:27:17
14 BROADSWORD 1.0725 31 Jul 12:00:00 31 Jul 19:30:00 297.8 50.7 4.6 03 Aug 12:15:30 03 Aug 17:29:49
15 BOBBYS GIRL 1.1629 31 Jul 12:00:00 31 Jul 19:30:00 295.0 53.5 4.9 03 Aug 07:09:53 03 Aug 18:06:21
16 LEE-WAY 1.0200 31 Jul 12:00:00 31 Jul 19:30:00 303.5 46.8 4.4 03 Aug 16:41:55 03 Aug 18:13:57
17 AFTER MIDNIGHT 1.1376 31 Jul 12:00:00 31 Jul 19:30:00 295.1 53.3 4.8 03 Aug 08:54:59 03 Aug 18:23:57
18 PATRICE 1.2872 31 Jul 12:00:00 31 Jul 19:30:00 288.7 60.3 5.4 03 Aug 01:10:49 03 Aug 18:45:05
19 SPIRIT OF MATESHIP 1.4070 31 Jul 12:00:00 31 Jul 19:30:00 286.3 63.4 5.9 02 Aug 20:07:21 03 Aug 18:57:52
20 SWISH 1.2380 31 Jul 12:00:00 31 Jul 19:30:00 290.6 58.8 5.1 03 Aug 03:58:15 03 Aug 19:11:46
21 CELESTIAL 1.2503 31 Jul 12:00:00 31 Jul 19:30:00 289.4 59.9 5.2 03 Aug 03:20:48 03 Aug 19:12:09
22 DEKADENCE 1.1834 31 Jul 12:00:00 31 Jul 19:30:00 293.6 55.0 4.9 03 Aug 07:34:52 03 Aug 19:58:32
23 ITALIAN JOB 1.0397 31 Jul 12:00:00 31 Jul 19:30:00 298.6 48.1 4.2 03 Aug 18:11:07 03 Aug 21:17:21
24 FRANTIC 1.3202 31 Jul 12:00:00 31 Jul 19:30:00 288.9 60.2 5.3 03 Aug 01:45:14 03 Aug 21:31:39
25 YELLOW CAB EUPHORIA 1.0474 31 Jul 12:00:00 31 Jul 19:30:00 298.4 49.6 4.2 03 Aug 18:06:05 03 Aug 21:48:12
26 LLOYDS TOO IMPETUOUS 1.0155 31 Jul 12:00:00 31 Jul 19:30:00 303.3 44.3 2.7 05 Aug 09:51:26 05 Aug 11:41:03


PHS overall

Position Name Rating Start Time Last update DTF (NM) Distance Sailed (NM) VMG* (Knots) Estimated finish time (EST) Estimated finish time (EST corrected)
1 SYNCHRONICITY 1.0850 31 Jul 12:00:00 31 Jul 17:15:00 311.6 34.7 7.3 02 Aug 11:48:47 02 Aug 15:52:37
2 WILD OATS XI 2.0000 31 Jul 12:00:00 31 Jul 19:30:00 262.9 90.8 9.9 01 Aug 22:04:08 03 Aug 08:08:16
3 LOCAL HERO 1.0480 31 Jul 12:00:00 31 Jul 19:30:00 301.5 47.9 5.1 03 Aug 06:45:41 03 Aug 09:57:58
4 KERUMBA 1.2280 31 Jul 12:00:00 31 Jul 19:30:00 289.9 60.3 5.8 02 Aug 21:30:46 03 Aug 10:37:33
5 GEORGIA EXPRESS 1.0790 31 Jul 12:00:00 31 Jul 19:30:00 297.8 48.8 5.1 03 Aug 06:08:47 03 Aug 11:22:19
6 AIRSTREAM 0.9560 31 Jul 12:00:00 31 Jul 19:30:00 301.9 46.7 4.5 03 Aug 14:56:36 03 Aug 11:38:45
7 CARBON CREDITS 1.0900 31 Jul 12:00:00 31 Jul 19:30:00 294.7 53.2 5.0 03 Aug 06:29:20 03 Aug 12:28:22
8 MAYFAIR 1.0820 31 Jul 12:00:00 31 Jul 19:30:00 296.8 51.0 5.0 03 Aug 07:02:33 03 Aug 12:32:24
9 SPIRIT OF MATESHIP 1.3000 31 Jul 12:00:00 31 Jul 19:30:00 286.3 63.4 5.9 02 Aug 20:07:21 03 Aug 12:57:33
10 DRAKE'S PRAYER 1.0300 31 Jul 12:00:00 31 Jul 19:30:00 299.3 49.2 4.7 03 Aug 11:15:26 03 Aug 13:23:42
11 OCEAN AFFINITY 1.2100 31 Jul 12:00:00 31 Jul 19:30:00 290.8 58.5 5.5 03 Aug 00:43:48 03 Aug 13:28:59
12 AUDERE 1.0950 31 Jul 12:00:00 31 Jul 19:30:00 294.6 53.6 4.9 03 Aug 07:31:35 03 Aug 13:56:30
13 PATRIOT 1.1050 31 Jul 12:00:00 31 Jul 19:30:00 294.4 53.2 4.9 03 Aug 07:07:02 03 Aug 14:09:53
14 THE MATRIX 1.1000 31 Jul 12:00:00 31 Jul 19:30:00 295.7 53.6 4.9 03 Aug 07:27:50 03 Aug 14:12:37
15 BROADSWORD 1.0500 31 Jul 12:00:00 31 Jul 19:30:00 297.8 50.7 4.6 03 Aug 12:15:30 03 Aug 15:52:16
16 HASTA LA VISTA 1.0880 31 Jul 12:00:00 31 Jul 19:30:00 296.2 51.7 4.7 03 Aug 10:20:48 03 Aug 16:32:14
17 BLACK JACK 1.8000 31 Jul 12:00:00 31 Jul 19:30:00 272.0 82.3 7.7 02 Aug 06:36:19 03 Aug 16:41:22
18 SOUTHERN CROSS YACHT 1.0800 31 Jul 12:00:00 31 Jul 19:30:00 296.7 51.3 4.7 03 Aug 11:13:09 03 Aug 16:55:01
19 RAGTIME 1.0950 31 Jul 12:00:00 31 Jul 19:30:00 296.4 51.6 4.7 03 Aug 10:24:47 03 Aug 17:06:08
20 ICHI BAN 1.5850 31 Jul 12:00:00 31 Jul 19:30:00 280.1 70.0 6.8 02 Aug 12:51:39 03 Aug 17:26:40
21 LEE-WAY 1.0100 31 Jul 12:00:00 31 Jul 19:30:00 303.5 46.8 4.4 03 Aug 16:41:55 03 Aug 17:27:56
22 BOBBYS GIRL 1.1600 31 Jul 12:00:00 31 Jul 19:30:00 295.0 53.5 4.9 03 Aug 07:09:53 03 Aug 17:54:40
23 FRANTIC 1.0900 31 Jul 12:00:00 31 Jul 19:30:00 299.5 49.4 4.6 03 Aug 12:02:15 03 Aug 18:31:15
24 AFTER MIDNIGHT 1.1450 31 Jul 12:00:00 31 Jul 19:30:00 295.1 53.3 4.8 03 Aug 08:54:59 03 Aug 18:54:33
25 DEKADENCE 1.1700 31 Jul 12:00:00 31 Jul 19:30:00 293.6 55.0 4.9 03 Aug 07:34:52 03 Aug 19:04:11
26 SWISH 1.2500 31 Jul 12:00:00 31 Jul 19:30:00 290.6 58.8 5.1 03 Aug 03:58:15 03 Aug 19:57:49
27 CELESTIAL 1.2800 31 Jul 12:00:00 31 Jul 19:30:00 289.4 59.9 5.2 03 Aug 03:20:48 03 Aug 21:05:02
28 PATRICE 1.3350 31 Jul 12:00:00 31 Jul 19:30:00 288.7 60.3 5.4 03 Aug 01:10:49 03 Aug 21:40:33
29 YELLOW CAB EUPHORIA 1.0470 31 Jul 12:00:00 31 Jul 19:30:00 298.4 49.6 4.2 03 Aug 18:06:05 03 Aug 21:46:19
30 FRANTIC 1.3250 31 Jul 12:00:00 31 Jul 19:30:00 288.9 60.2 5.3 03 Aug 01:45:14 03 Aug 21:49:26
31 ALIVE 1.8200 31 Jul 12:00:00 31 Jul 19:30:00 276.3 73.9 7.3 02 Aug 09:32:52 03 Aug 22:53:50
32 ITALIAN JOB 1.0720 31 Jul 12:00:00 31 Jul 19:30:00 298.6 48.1 4.2 03 Aug 18:11:07 03 Aug 23:48:53
33 LLOYDS TOO IMPETUOUS 0.9540 31 Jul 12:00:00 31 Jul 19:30:00 303.3 44.3 2.7 05 Aug 09:51:26 05 Aug 04:26:09
34 THE HEALER 0.8070 31 Jul 12:00:00 31 Jul 19:30:00 309.3 40.8 2.2 06 Aug 16:51:51 05 Aug 12:08:00


Event website


by Lisa Ratcliff - OCC


  

Click on the FB Like link to post this story to your FB wall

http://www.sail-world.com/index.cfm?nid=125079

8:29 AM Thu 31 Jul 2014GMT


Click here for printer friendly version
Click here to send us feedback or comments about this story.

Click for further information on


Related News Stories:

31 Jul 2014  Brisbane to Keppel Race – A gentle start






News - USA and the World

Before the start of the Rolex Sydney Hobart Race, Ken Read, skipper of the US supermaxi Comanche gave this tour above and below decks of Jim and Kristy Clark's new 100ft flyer. ... [more]  

Rolex Sydney Hobart: Tough Stuff Down the Tassie Coast *Feature by Crosbie Lorimer, Hobart, Tasmania
By nine a.m. this morning (Monday) ten boats were finished, amongst them several of the 50 footers arriving in a group just before 8am. The consistent theme amongst all those we interviewed was the strength of wind late yesterday on the run down the Tasmanian coast. ... [more]  

The overnight and morning finishes have been marked by some very close racing in the Rolex Sydney Hobart race. The battle for third place was won by Ragamuffin (Syd Fischer), after the canting keel supermaxi dropped back significantly yesterday afternoon, and then powered through in the fresh northerly ... [more]  

Sail-World is now running live in the changed website format. If you are running on a Mac with iOS please scroll to the bottom of the site and check that your region is set for your region and not some other. It can be correctly set up using the drop down boxes. Then go to the top, click refresh, and you should be away. ... [more]  

Rolex Sydney Hobart: Wild Oats XI and Comanche Finish Images *Feature by Crosbie Lorimer, Hobart, Tasmania
The Comanche and Wild Oats XI teams were equally gracious in victory and defeat on the dockside in Hobart today. It had been a close fought battle and while Comanche had reeled Wild Oats XI back in overnight to within 9nm , there simply wasn't enough air to power up the American boat in the run across Storm Bay and up the Derwent River. ... [more]  

Rolex Sydney Hobart Yacht Race 2014: In what skipper Mark Richards described as the crew’s most hard-fought line honours triumph, Wild Oats XI held off the impressive challenge posed by Comanche, the newly-launched entry from the United States. Completing the race in 2 days, 2 hours, 3 minutes and 26 seconds, Wild Oats XI finished eight hours shy of the race record she set in 2012. ... [more]  

After being dismasted a short time ago in the Rolex Sydney Hobart, Giacomo is motoring to the lee of Maria Island. In other race news, a very disappointed Bill Wild has retired his Reichel/Pugh 55, Wedgetail, from the race after suffering mast damage in the Cruising Yacht Club of Australia’s 628 nautical mile race at approximately 7.40pm off Schouten Island. All are safe and well on board. ... [more]  

Rolex Sydney Hobart Yacht Race 2014: Spithill was one of six helmsmen on Comanche. 'We can’t leave it at that,' he declared after finishing in Hobart. He says that on his watch this morning the boat reached a top speed of 32 knots and knows what she is capable of. 'Everybody got to see the true potential of this boat at the start. ... [more]  

Top international yachting photographer, Carlo Borlenghi was in the air above the Rolex Sydney Hobart Race fleet and provided these images of the third day of racing in the classic ocean race, as the leaders closed in on the finish, and the dock celebrations by Wild Oats XI. ... [more]  

Rolex Sydney Hobart Yacht Race - 'This is the sweetest victory by far,' Wild Oats XI skipper Mark Richards declared today after steering the silver-grey thoroughbred to a record eighth line honours victory in the Rolex Sydney Hobart. 'To rewrite a bit of sailing history doesn’t come along every day. To win a Hobart is a great honour but to win an eighth; I can’t believe I am here,' Richards said. ... [more]  

Photographer Andrea Francolini was on the water at 2014 Rolex Sydney Hobart Yacht Race line honours finish and provided this gallery of images. ... [more]  

Wild Oats XI entered the Derwent River some forty minutes ahead of Comanche at the Iron Pot and gybed her way up river in 5-10 knot southeaster, bright sunshine and crystal clear light to take a record breaking eighth line honours win in this race at 3.03pm The size of spectator fleet that accompanied Wild Oats XI and the crowds on the dock were much the largest ever sen for this race. ... [more]  

The Volvo 70 Giacomo lost her rig in the vicinity of Maria Island about 5.30pm local time yesterday evening. A second yacht Wedgetail (an RP55) lost the top off her mast in the same area at the same time. Giacomo is a Volvo 70 owned and skippered by Jim Delegat (NZL) and has a full New Zealand crew aboard ... [more]  

Rolex Sydney Hobart Wild Oats XI takes number eight by Rob Kothe and the Sail-World Team
Wild Oats XI finished at 303pm, with her big A2 flying. Her elapsed time was two days two hours three minutes and twenty six seconds 02:02:03:26 That was some eight hours outside the race record she set in 2012 of 1 day, 18 hours, 23 minutes and 12 seconds. ... [more]  

At the 2014 Rolex Sydney Hobart Yacht Race photographer Daniel Forster was on the water and provided this gallery of images from Day 2. ... [more]  

Rolex Sydney Hobart: Wild Oats XI scores comfortable 8th win by Richard Gladwell, Sail-World.com/nz
Wild Oats XI (Oatley family) has crossed the finish line for the Rolex Sydney Hobart race to take her eighth win in the offshore classic. She crossed the finish line in the Derwent River sailing on port tack with a big asymmetrical headsail flying, and accompanied by a bevy of spectator craft as she crossed the finish line at 3.00pm local time. ... [more]  

In Alamitos Bay Yacht Club's annual Boxing Day race the hometown Gibbs brothers, Riley, 18, and Sawyer, 16, started last in their 49er skiff but passed all of the other boats of various types to finish first in brilliant sun but cool light air Sunday. ... [more]  

2014 Rolex Sydney Hobart Yacht Race - Wild Oats XI is still leading the 2014 Rolex Sydney Hobart, some 38-nm from Hobart, and hoping to close in on a record eighth line honours win. ... [more]  

2014 Rolex Sydney Hobart Yacht Race - The crew on the American super maxi Comanche have not thrown in the towel. They do not believe the race for line honours in the Rolex Sydney Hobart is over despite Wild Oats XI’s commanding lead. ... [more]  

2014 Rolex Sydney Hobart Yacht Race - Bob Oatley’s 10 year-old super maxi Wild Oats XI is racing towards an historic eighth line honours victory in the Rolex Sydney Hobart this morning. ... [more]  

Rolex Sydney Hobart: Wild Oats rounds Tasman Island by Richard Gladwell, Sail-World.com/nz
Seven time race winner, Wild Oats XI (Oatley family) looks set to take her eighth win, after rounding Tasman Island just before noon, local time. The supermaxi rounded the landmark with a ten mile lead over the US supermaxi Comanche and has about 35nm to sail in a direct line to the finish line off Hobart. ... [more]  

With the front runners in the Rolex Sydney Hobart expected to sneak through in light to moderate tail winds, the weather prognosis for the remainder of the fleet is, well, interesting. The simple analysis is that fresh northerly winds will give the fleet a fast ride on Sunday and during the daylight hours of Monday. ... [more]  

Wild Oats XI (Oatley family) is expected to cross the finish line, around 4pm on Sunday and take her eighth line honours win. The race leaders are making good time down the coast of Tasmania, and at daybreak had approximately 100nm to sail. ... [more]  

Sydney to Hobart - Another 40 foot white-wash? by Rob Kothe and the Sail-World team
With the Supermaxi battle probably all over in this 70th Rolex Sydney to Hobart race, unless Wild Oats XI drops her rig in the next five hours, she is set to take her eighth line honours victory so at last the attention will shift to the real race, the battle for handicap honours. ... [more]  

Rolex Sydney Hobart: Your Turn, Then My Turn, Then Your Turn! *Feature by Crosbie Lorimer, Hobart, Tasmania
With the front runners over halfway to Hobart, this year’s race is turning out to be quite a page turner already; and that’s just the big boats. So let’s start with them. Wind back to the start, first honours to Comanche in the shoot out to the first mark. To be fair it was akin to pitting a brand new Bugatti Veyron against some classy and quick Ferraris and Porsches. The result in those ... [more]  

There is absolutely no way anyone can predict these before the vast majority of the still 109 vessels racing actually get home to Hobart Town. One can, however, talk about the very things that do go into making these results that so many chase and to do so, we have to work through a myriad of vessel designs, ages and types. ... [more]  

Rolex Sydney Hobart 2014; Handicap Honours Predictions VIDEO *Feature by Dale Lorimer, Hobart, Tasmania
Given the weather models for the race, Crosbie Lorimer did the rounds of the CYCA dock just prior to the start of the race to find out who the various skippers, navigators and tacticians believed might take out the overall Handicap win on IRC. Here are some of their predictions, how they are panning out for some and an update on the position at the front of the fleet. ... [more]  

Sydney Hobart 2014: A ridge too far for Comanche by Bruce Montgomery, RSHYR Media
2014 Rolex Sydney Hobart Yacht Race - That’s the conclusion that one might well draw from the huge difference in the performance of the Hamilton Island super maxi Wild Oats XI and her main challenger, the US boat Comanche. ... [more]  

Photographer Daniel Forster was in the air again for the Sydney Hobart 2014, and provided this gallery of images. ... [more]  

2014 Rolex Sydney Hobart Yacht Race - The chase for line honours at the 2014 Rolex Sydney Hobart Yacht Race is intensifying with the leading boats approaching the halfway mark of the 628-nm race. ... [more]  

By Grand Prix ocean racing standards she’s an old girl, and there’s no denying she’s had a few makeovers during the past decade, but Bob Oatley’s 30-metre long supermaxi, Wild Oats XI, was leaving no doubt today that when it came to speed she’s still got great legs. ... [more]  

2014 Rolex Sydney Hobart Yacht Race - After 24 hours the Hamilton Island supermaxi Wild Oats XI has taken the lead for the first time in the Rolex Sydney Hobart Yacht Race, the 70th sailing of the event. ... [more]  

Photographer Howard Wright was on the water at the start of the 2014 Rolex Sydney Hobart Yacht Race, and provided this gallery of images. ... [more]  

2014 -15 Barcelona World Race - Food, food, some not so glorious!!
2015 Fireball World Championship - Notice of Race released
Rolex Sydney Hobart: Supermaxi Race Start VIDEO *Feature
Rolex Sydney Hobart: Perpetual Loyal forced to retire with hull damage *Feature
2014 Rolex Sydney Hobart: Clouds backs the small boats for overall win
Rolex Sydney to Hobart: Replay video coverage on Sail-World *Feature
Sydney Hobart - Comanche leads but Oats XI keeps the rubber band on
Will Comanche take a scalp?
Rolex Sydney Hobart Yacht Race 2014- Southerly takes its toll
Rolex Sydney Hobart: Comanche leads in softening morning breeze *Feature
Rolex Sydney Hobart - Comanche take a gun to the knife fight + Video
Rolex Sydney Hobart Yacht Race 2014 - Supermaxi contest + Video
Rolex Sydney Hobart: Images from the flying start on Sydney harbour
Rolex Sydney Hobart Yacht Race 2014: Start photos by Andrea Francolini
Sydney Hobart 2014 The Cutting edge Formula 1 yacht still leads
Rolex Sydney Hobart Yacht Race 2014 – Grand dame heads back to Sydney
Rolex Sydney Hobart Yacht Race - Day 1 start images by Carlo Borlenghi
Rolex Sydney Hobart: Race Start Images by Crosbie Lorimer *Feature
Clipper Ventures 10 starts Rolex Sydney Hobart Yacht Race
Rolex Sydney Hobart Yacht Race - Another year another record
Rolex Sydney Hobart 2014 – Comanche on the warpath   
2014 Rolex Sydney Hobart - Spithill to grind on Comanche   
Rolex Sydney Hobart Yacht Race – Spinnaker start forecast   
Rolex Sydney Hobart Yacht Race - Wild Oats XI ready to go   
Adventures of a Sailor Girl: Hobart coverage - December 26 - Live   
Rolex Sydney Hobart - The Peyron Perspective -Old People On New Boats *Feature   
2014 Rolex Sydney Hobart - Spithill to grind on Comanche   
Rolex Sydney Hobart; Wild Oats XI trials Goose for Christmas   
Rolex Sydney Hobart Yacht Race 2014 - The Weather Gate *Feature   
For Christmas a Shiny new Sail-World.com *Feature   
Sydney-Hobart: Wacky Races 3 – Gravel and Red Max versus VMG *Feature   
Yankees at the Gate - A pre Sydney-Hobart conversation with Ken Read *Feature   
Rolex Sydney Hobart: Line Honours Skippers Press Conference - Video   
Barcelona World Race 2014-15 -A different Christmas   
Volvo Ocean Race: Team Vestas Wind recovery video *Feature   
Rolex Sydney Hobart Yacht Race 2014 - Another great journey south   
Sydney Hobart - Ragamuffin's David Witt explains deck failure + Video   
Wild Oats XI - Damage drama in lead-up to Sydney Hobart Race   
Rolex Sydney Hobart Yacht Race images by Photographer Carlo Borlenghi   
Five faces behind the 100ft super maxis by Andrea Francolini   


For this week's complete news stories select    Last 7 Days
   Search All News
For last month's complete news stories select    Last 30 Days
   Archive News







Sail-World.com  


















Switch Default Region to:

Social Media

Asia

Australia

Canada

Europe

New Zealand

United Kingdom


http://www.sail-world.com/event_images/image/Twitter_logo_small.png http://www.sail-world.com/event_images/image/FaceBook-icon.png  http://www.sail-world.com/event_images/image/RSS-Icon.png

United States

Cruising Northern

Cruising Southern

MarineBusiness World

PowerBoat World

FishingBoating World

 

Contact

Commercial

News

Search

Contact Us

Advertisers Information

Submit news/events

Search Stories/Text

Feedback

Advertisers Directory

Newsletter Archive

Photo Gallery

 

Banner Advertising Details

Newsletter Subscribe

Video Gallery

Policies

 

 

 

Privacy Policy

 

 


Cookie Policy

 

 



This site and its contents are © Copyright TetraMedia and/or the original author, photographer etc. All Rights Reserved.  Photographs are copyright by law.  If you wish to use or buy a photograph contact the photographer directly.
XLXL NEW US
LocalAds   DE  ES  FR  IT